sensor_id;sensor_type;location;lat;lon;timestamp;P1;durP1;ratioP1;P2;durP2;ratioP2
54807;SDS011;40708;50.364;7.550;2024-01-11T00:00:03;45.63;;;26.33;;
54807;SDS011;40708;50.364;7.550;2024-01-11T00:02:28;41.10;;;24.10;;
54807;SDS011;40708;50.364;7.550;2024-01-11T00:04:53;43.87;;;25.57;;
54807;SDS011;40708;50.364;7.550;2024-01-11T00:07:19;50.17;;;28.50;;
54807;SDS011;40708;50.364;7.550;2024-01-11T00:09:44;48.00;;;27.08;;
54807;SDS011;40708;50.364;7.550;2024-01-11T00:12:09;49.10;;;28.20;;
54807;SDS011;40708;50.364;7.550;2024-01-11T00:14:35;44.10;;;26.83;;
54807;SDS011;40708;50.364;7.550;2024-01-11T00:17:00;49.27;;;25.63;;
54807;SDS011;40708;50.364;7.550;2024-01-11T00:19:25;53.33;;;28.40;;
54807;SDS011;40708;50.364;7.550;2024-01-11T00:21:50;48.57;;;26.80;;
54807;SDS011;40708;50.364;7.550;2024-01-11T00:24:15;50.45;;;27.45;;
54807;SDS011;40708;50.364;7.550;2024-01-11T00:26:41;50.27;;;28.60;;
54807;SDS011;40708;50.364;7.550;2024-01-11T00:29:06;45.90;;;26.27;;
54807;SDS011;40708;50.364;7.550;2024-01-11T00:31:32;50.80;;;28.57;;
54807;SDS011;40708;50.364;7.550;2024-01-11T00:33:57;45.40;;;26.47;;
54807;SDS011;40708;50.364;7.550;2024-01-11T00:36:22;50.38;;;29.83;;
54807;SDS011;40708;50.364;7.550;2024-01-11T00:38:47;48.13;;;27.70;;
54807;SDS011;40708;50.364;7.550;2024-01-11T00:41:12;48.80;;;26.70;;
54807;SDS011;40708;50.364;7.550;2024-01-11T00:43:37;50.63;;;28.10;;
54807;SDS011;40708;50.364;7.550;2024-01-11T00:46:03;51.67;;;28.70;;
54807;SDS011;40708;50.364;7.550;2024-01-11T00:48:28;51.43;;;28.50;;
54807;SDS011;40708;50.364;7.550;2024-01-11T00:50:53;44.60;;;26.93;;
54807;SDS011;40708;50.364;7.550;2024-01-11T00:53:19;50.00;;;28.57;;
54807;SDS011;40708;50.364;7.550;2024-01-11T00:55:44;52.63;;;30.25;;
54807;SDS011;40708;50.364;7.550;2024-01-11T00:58:09;49.43;;;28.50;;
54807;SDS011;40708;50.364;7.550;2024-01-11T01:00:34;46.40;;;27.43;;
54807;SDS011;40708;50.364;7.550;2024-01-11T01:02:59;49.83;;;26.77;;
54807;SDS011;40708;50.364;7.550;2024-01-11T01:05:24;55.20;;;30.25;;
54807;SDS011;40708;50.364;7.550;2024-01-11T01:07:49;44.70;;;27.52;;
54807;SDS011;40708;50.364;7.550;2024-01-11T01:10:15;51.07;;;28.63;;
54807;SDS011;40708;50.364;7.550;2024-01-11T01:12:40;50.90;;;28.43;;
54807;SDS011;40708;50.364;7.550;2024-01-11T01:15:05;48.22;;;28.08;;
54807;SDS011;40708;50.364;7.550;2024-01-11T01:17:31;49.57;;;28.20;;
54807;SDS011;40708;50.364;7.550;2024-01-11T01:19:56;49.17;;;27.53;;
54807;SDS011;40708;50.364;7.550;2024-01-11T01:22:22;48.90;;;27.57;;
54807;SDS011;40708;50.364;7.550;2024-01-11T01:24:47;46.20;;;27.08;;
54807;SDS011;40708;50.364;7.550;2024-01-11T01:27:12;48.83;;;27.83;;
54807;SDS011;40708;50.364;7.550;2024-01-11T01:29:37;53.90;;;30.35;;
54807;SDS011;40708;50.364;7.550;2024-01-11T01:32:03;56.00;;;30.37;;
54807;SDS011;40708;50.364;7.550;2024-01-11T01:34:28;57.77;;;29.80;;
54807;SDS011;40708;50.364;7.550;2024-01-11T01:36:53;58.67;;;30.03;;
54807;SDS011;40708;50.364;7.550;2024-01-11T01:39:18;48.10;;;27.17;;
54807;SDS011;40708;50.364;7.550;2024-01-11T01:41:44;52.23;;;28.27;;
54807;SDS011;40708;50.364;7.550;2024-01-11T01:44:09;50.43;;;28.87;;
54807;SDS011;40708;50.364;7.550;2024-01-11T01:46:34;49.70;;;27.07;;
54807;SDS011;40708;50.364;7.550;2024-01-11T01:48:59;53.63;;;28.40;;
54807;SDS011;40708;50.364;7.550;2024-01-11T01:51:26;52.40;;;29.53;;
54807;SDS011;40708;50.364;7.550;2024-01-11T01:53:52;54.80;;;29.70;;
54807;SDS011;40708;50.364;7.550;2024-01-11T01:56:19;53.23;;;29.30;;
54807;SDS011;40708;50.364;7.550;2024-01-11T01:58:44;46.67;;;27.40;;
54807;SDS011;40708;50.364;7.550;2024-01-11T02:01:10;49.80;;;26.73;;
54807;SDS011;40708;50.364;7.550;2024-01-11T02:03:36;54.13;;;27.93;;
54807;SDS011;40708;50.364;7.550;2024-01-11T02:06:03;52.57;;;28.83;;
54807;SDS011;40708;50.364;7.550;2024-01-11T02:08:29;49.17;;;29.03;;
54807;SDS011;40708;50.364;7.550;2024-01-11T02:10:55;45.90;;;27.30;;
54807;SDS011;40708;50.364;7.550;2024-01-11T02:13:21;48.97;;;26.60;;
54807;SDS011;40708;50.364;7.550;2024-01-11T02:15:46;51.47;;;29.30;;
54807;SDS011;40708;50.364;7.550;2024-01-11T02:18:12;47.77;;;29.30;;
54807;SDS011;40708;50.364;7.550;2024-01-11T02:20:37;50.25;;;28.75;;
54807;SDS011;40708;50.364;7.550;2024-01-11T02:23:05;52.60;;;29.53;;
54807;SDS011;40708;50.364;7.550;2024-01-11T02:25:32;49.37;;;26.40;;
54807;SDS011;40708;50.364;7.550;2024-01-11T02:27:57;52.37;;;28.10;;
54807;SDS011;40708;50.364;7.550;2024-01-11T02:30:22;56.67;;;29.25;;
54807;SDS011;40708;50.364;7.550;2024-01-11T02:32:48;51.30;;;29.07;;
54807;SDS011;40708;50.364;7.550;2024-01-11T02:35:14;51.63;;;29.30;;
54807;SDS011;40708;50.364;7.550;2024-01-11T02:37:39;47.77;;;27.60;;
54807;SDS011;40708;50.364;7.550;2024-01-11T02:40:06;54.20;;;29.20;;
54807;SDS011;40708;50.364;7.550;2024-01-11T02:42:32;48.73;;;27.40;;
54807;SDS011;40708;50.364;7.550;2024-01-11T02:44:57;56.37;;;29.67;;
54807;SDS011;40708;50.364;7.550;2024-01-11T02:47:22;56.20;;;30.87;;
54807;SDS011;40708;50.364;7.550;2024-01-11T02:49:47;57.13;;;30.40;;
54807;SDS011;40708;50.364;7.550;2024-01-11T02:52:12;50.58;;;30.17;;
54807;SDS011;40708;50.364;7.550;2024-01-11T02:54:38;51.80;;;27.33;;
54807;SDS011;40708;50.364;7.550;2024-01-11T02:57:03;52.83;;;27.97;;
54807;SDS011;40708;50.364;7.550;2024-01-11T02:59:28;53.23;;;29.40;;
54807;SDS011;40708;50.364;7.550;2024-01-11T03:01:53;51.73;;;28.83;;
54807;SDS011;40708;50.364;7.550;2024-01-11T03:04:18;48.80;;;29.38;;
54807;SDS011;40708;50.364;7.550;2024-01-11T03:06:44;59.90;;;32.00;;
54807;SDS011;40708;50.364;7.550;2024-01-11T03:09:09;54.90;;;29.13;;
54807;SDS011;40708;50.364;7.550;2024-01-11T03:11:34;51.10;;;28.45;;
54807;SDS011;40708;50.364;7.550;2024-01-11T03:13:59;54.37;;;29.30;;
54807;SDS011;40708;50.364;7.550;2024-01-11T03:16:25;55.17;;;29.03;;
54807;SDS011;40708;50.364;7.550;2024-01-11T03:18:50;52.10;;;28.60;;
54807;SDS011;40708;50.364;7.550;2024-01-11T03:21:15;50.53;;;30.10;;
54807;SDS011;40708;50.364;7.550;2024-01-11T03:23:40;52.90;;;29.40;;
54807;SDS011;40708;50.364;7.550;2024-01-11T03:26:18;57.58;;;32.00;;
54807;SDS011;40708;50.364;7.550;2024-01-11T03:28:43;53.03;;;29.13;;
54807;SDS011;40708;50.364;7.550;2024-01-11T03:31:09;49.90;;;29.77;;
54807;SDS011;40708;50.364;7.550;2024-01-11T03:33:34;49.17;;;29.63;;
54807;SDS011;40708;50.364;7.550;2024-01-11T03:35:59;54.73;;;29.50;;
54807;SDS011;40708;50.364;7.550;2024-01-11T03:38:28;48.57;;;27.67;;
54807;SDS011;40708;50.364;7.550;2024-01-11T03:40:53;52.83;;;29.27;;
54807;SDS011;40708;50.364;7.550;2024-01-11T03:43:18;59.77;;;30.93;;
54807;SDS011;40708;50.364;7.550;2024-01-11T03:45:43;52.73;;;30.27;;
54807;SDS011;40708;50.364;7.550;2024-01-11T03:48:08;53.50;;;29.92;;
54807;SDS011;40708;50.364;7.550;2024-01-11T03:50:33;53.40;;;31.37;;
54807;SDS011;40708;50.364;7.550;2024-01-11T03:52:59;54.83;;;29.65;;
54807;SDS011;40708;50.364;7.550;2024-01-11T03:55:24;49.73;;;28.23;;
54807;SDS011;40708;50.364;7.550;2024-01-11T03:57:49;54.67;;;28.87;;
54807;SDS011;40708;50.364;7.550;2024-01-11T04:00:14;57.20;;;29.37;;
54807;SDS011;40708;50.364;7.550;2024-01-11T04:02:40;56.03;;;32.03;;
54807;SDS011;40708;50.364;7.550;2024-01-11T04:05:05;51.87;;;28.80;;
54807;SDS011;40708;50.364;7.550;2024-01-11T04:07:30;51.70;;;28.63;;
54807;SDS011;40708;50.364;7.550;2024-01-11T04:09:55;55.13;;;30.90;;
54807;SDS011;40708;50.364;7.550;2024-01-11T04:12:20;52.72;;;29.08;;
54807;SDS011;40708;50.364;7.550;2024-01-11T04:14:46;49.67;;;28.08;;
54807;SDS011;40708;50.364;7.550;2024-01-11T04:17:11;53.63;;;30.40;;
54807;SDS011;40708;50.364;7.550;2024-01-11T04:19:36;54.47;;;31.13;;
54807;SDS011;40708;50.364;7.550;2024-01-11T04:22:01;57.43;;;33.53;;
54807;SDS011;40708;50.364;7.550;2024-01-11T04:24:26;54.43;;;30.80;;
54807;SDS011;40708;50.364;7.550;2024-01-11T04:26:52;59.70;;;32.05;;
54807;SDS011;40708;50.364;7.550;2024-01-11T04:29:17;55.10;;;31.23;;
54807;SDS011;40708;50.364;7.550;2024-01-11T04:31:43;54.03;;;30.53;;
54807;SDS011;40708;50.364;7.550;2024-01-11T04:34:08;60.03;;;30.87;;
54807;SDS011;40708;50.364;7.550;2024-01-11T04:36:36;55.27;;;29.70;;
54807;SDS011;40708;50.364;7.550;2024-01-11T04:39:01;53.63;;;30.30;;
54807;SDS011;40708;50.364;7.550;2024-01-11T04:41:27;52.60;;;29.80;;
54807;SDS011;40708;50.364;7.550;2024-01-11T04:43:52;49.00;;;27.53;;
54807;SDS011;40708;50.364;7.550;2024-01-11T04:46:18;59.95;;;31.52;;
54807;SDS011;40708;50.364;7.550;2024-01-11T04:48:43;50.57;;;28.47;;
54807;SDS011;40708;50.364;7.550;2024-01-11T04:51:09;54.93;;;29.80;;
54807;SDS011;40708;50.364;7.550;2024-01-11T04:53:37;60.40;;;31.07;;
54807;SDS011;40708;50.364;7.550;2024-01-11T04:56:03;52.93;;;29.63;;
54807;SDS011;40708;50.364;7.550;2024-01-11T04:58:29;57.40;;;31.37;;
54807;SDS011;40708;50.364;7.550;2024-01-11T05:00:54;57.40;;;31.27;;
54807;SDS011;40708;50.364;7.550;2024-01-11T05:03:19;50.60;;;28.50;;
54807;SDS011;40708;50.364;7.550;2024-01-11T05:05:44;57.17;;;31.73;;
54807;SDS011;40708;50.364;7.550;2024-01-11T05:08:09;51.58;;;30.00;;
54807;SDS011;40708;50.364;7.550;2024-01-11T05:10:35;56.27;;;33.27;;
54807;SDS011;40708;50.364;7.550;2024-01-11T05:13:01;53.17;;;29.43;;
54807;SDS011;40708;50.364;7.550;2024-01-11T05:15:26;54.40;;;30.55;;
54807;SDS011;40708;50.364;7.550;2024-01-11T05:17:51;50.80;;;27.77;;
54807;SDS011;40708;50.364;7.550;2024-01-11T05:20:16;52.15;;;27.75;;
54807;SDS011;40708;50.364;7.550;2024-01-11T05:22:41;47.23;;;26.50;;
54807;SDS011;40708;50.364;7.550;2024-01-11T05:25:06;51.35;;;28.25;;
54807;SDS011;40708;50.364;7.550;2024-01-11T05:27:32;46.87;;;27.60;;
54807;SDS011;40708;50.364;7.550;2024-01-11T05:29:57;47.90;;;27.73;;
54807;SDS011;40708;50.364;7.550;2024-01-11T05:32:22;53.00;;;29.45;;
54807;SDS011;40708;50.364;7.550;2024-01-11T05:34:47;49.13;;;27.77;;
54807;SDS011;40708;50.364;7.550;2024-01-11T05:37:12;50.42;;;29.25;;
54807;SDS011;40708;50.364;7.550;2024-01-11T05:39:37;47.50;;;27.50;;
54807;SDS011;40708;50.364;7.550;2024-01-11T05:42:03;57.85;;;32.10;;
54807;SDS011;40708;50.364;7.550;2024-01-11T05:44:28;53.73;;;29.30;;
54807;SDS011;40708;50.364;7.550;2024-01-11T05:46:53;53.22;;;29.38;;
54807;SDS011;40708;50.364;7.550;2024-01-11T05:49:18;58.50;;;29.33;;
54807;SDS011;40708;50.364;7.550;2024-01-11T05:51:43;53.47;;;31.15;;
54807;SDS011;40708;50.364;7.550;2024-01-11T05:54:08;55.87;;;31.00;;
54807;SDS011;40708;50.364;7.550;2024-01-11T05:56:34;55.95;;;30.50;;
54807;SDS011;40708;50.364;7.550;2024-01-11T05:58:59;58.00;;;31.20;;
54807;SDS011;40708;50.364;7.550;2024-01-11T06:01:24;52.67;;;31.23;;
54807;SDS011;40708;50.364;7.550;2024-01-11T06:03:49;61.95;;;33.83;;
54807;SDS011;40708;50.364;7.550;2024-01-11T06:06:14;58.72;;;31.33;;
54807;SDS011;40708;50.364;7.550;2024-01-11T06:08:40;51.87;;;29.50;;
54807;SDS011;40708;50.364;7.550;2024-01-11T06:11:06;55.80;;;32.97;;
54807;SDS011;40708;50.364;7.550;2024-01-11T06:13:32;56.30;;;31.87;;
54807;SDS011;40708;50.364;7.550;2024-01-11T06:15:57;54.30;;;30.00;;
54807;SDS011;40708;50.364;7.550;2024-01-11T06:18:22;52.43;;;29.77;;
54807;SDS011;40708;50.364;7.550;2024-01-11T06:20:48;53.00;;;30.07;;
54807;SDS011;40708;50.364;7.550;2024-01-11T06:23:13;51.72;;;29.33;;
54807;SDS011;40708;50.364;7.550;2024-01-11T06:25:38;56.30;;;31.03;;
54807;SDS011;40708;50.364;7.550;2024-01-11T06:28:03;53.00;;;27.97;;
54807;SDS011;40708;50.364;7.550;2024-01-11T06:30:28;53.73;;;31.33;;
54807;SDS011;40708;50.364;7.550;2024-01-11T06:32:54;60.60;;;32.30;;
54807;SDS011;40708;50.364;7.550;2024-01-11T06:35:19;57.80;;;29.63;;
54807;SDS011;40708;50.364;7.550;2024-01-11T06:37:44;59.13;;;31.53;;
54807;SDS011;40708;50.364;7.550;2024-01-11T06:40:09;60.43;;;33.30;;
54807;SDS011;40708;50.364;7.550;2024-01-11T06:42:35;56.90;;;32.30;;
54807;SDS011;40708;50.364;7.550;2024-01-11T06:45:00;64.33;;;35.90;;
54807;SDS011;40708;50.364;7.550;2024-01-11T06:47:26;62.70;;;33.50;;
54807;SDS011;40708;50.364;7.550;2024-01-11T06:49:51;60.07;;;31.70;;
54807;SDS011;40708;50.364;7.550;2024-01-11T06:52:16;67.00;;;35.25;;
54807;SDS011;40708;50.364;7.550;2024-01-11T06:54:41;59.23;;;33.67;;
54807;SDS011;40708;50.364;7.550;2024-01-11T06:57:06;59.57;;;31.80;;
54807;SDS011;40708;50.364;7.550;2024-01-11T06:59:32;55.13;;;30.70;;
54807;SDS011;40708;50.364;7.550;2024-01-11T07:01:57;54.63;;;30.47;;
54807;SDS011;40708;50.364;7.550;2024-01-11T07:04:22;62.07;;;31.77;;
54807;SDS011;40708;50.364;7.550;2024-01-11T07:06:47;57.97;;;32.47;;
54807;SDS011;40708;50.364;7.550;2024-01-11T07:09:13;57.23;;;32.10;;
54807;SDS011;40708;50.364;7.550;2024-01-11T07:11:39;61.80;;;33.30;;
54807;SDS011;40708;50.364;7.550;2024-01-11T07:14:04;55.97;;;32.10;;
54807;SDS011;40708;50.364;7.550;2024-01-11T07:16:29;59.07;;;30.07;;
54807;SDS011;40708;50.364;7.550;2024-01-11T07:18:55;58.77;;;33.63;;
54807;SDS011;40708;50.364;7.550;2024-01-11T07:21:21;55.43;;;32.30;;
54807;SDS011;40708;50.364;7.550;2024-01-11T07:23:54;54.80;;;29.93;;
54807;SDS011;40708;50.364;7.550;2024-01-11T07:26:19;54.90;;;31.00;;
54807;SDS011;40708;50.364;7.550;2024-01-11T07:28:44;57.63;;;31.55;;
54807;SDS011;40708;50.364;7.550;2024-01-11T07:31:10;59.77;;;32.20;;
54807;SDS011;40708;50.364;7.550;2024-01-11T07:33:35;52.90;;;29.03;;
54807;SDS011;40708;50.364;7.550;2024-01-11T07:36:00;52.47;;;28.90;;
54807;SDS011;40708;50.364;7.550;2024-01-11T07:38:25;54.88;;;28.58;;
54807;SDS011;40708;50.364;7.550;2024-01-11T07:40:50;56.35;;;31.10;;
54807;SDS011;40708;50.364;7.550;2024-01-11T07:43:16;58.57;;;30.97;;
54807;SDS011;40708;50.364;7.550;2024-01-11T07:45:41;54.13;;;30.73;;
54807;SDS011;40708;50.364;7.550;2024-01-11T07:48:06;54.07;;;30.87;;
54807;SDS011;40708;50.364;7.550;2024-01-11T07:50:31;50.43;;;29.80;;
54807;SDS011;40708;50.364;7.550;2024-01-11T07:52:57;50.73;;;29.27;;
54807;SDS011;40708;50.364;7.550;2024-01-11T07:55:22;60.60;;;32.63;;
54807;SDS011;40708;50.364;7.550;2024-01-11T07:57:49;59.53;;;31.57;;
54807;SDS011;40708;50.364;7.550;2024-01-11T08:00:15;56.00;;;29.47;;
54807;SDS011;40708;50.364;7.550;2024-01-11T08:02:40;56.57;;;31.30;;
54807;SDS011;40708;50.364;7.550;2024-01-11T08:05:05;59.73;;;32.33;;
54807;SDS011;40708;50.364;7.550;2024-01-11T08:07:31;58.37;;;31.20;;
54807;SDS011;40708;50.364;7.550;2024-01-11T08:09:56;51.60;;;29.70;;
54807;SDS011;40708;50.364;7.550;2024-01-11T08:12:21;53.00;;;28.87;;
54807;SDS011;40708;50.364;7.550;2024-01-11T08:14:46;57.43;;;31.43;;
54807;SDS011;40708;50.364;7.550;2024-01-11T08:17:12;58.67;;;31.40;;
54807;SDS011;40708;50.364;7.550;2024-01-11T08:19:38;57.77;;;32.00;;
54807;SDS011;40708;50.364;7.550;2024-01-11T08:22:04;53.27;;;30.03;;
54807;SDS011;40708;50.364;7.550;2024-01-11T08:24:29;53.20;;;29.73;;
54807;SDS011;40708;50.364;7.550;2024-01-11T08:26:54;49.63;;;29.40;;
54807;SDS011;40708;50.364;7.550;2024-01-11T08:29:20;51.27;;;28.77;;
54807;SDS011;40708;50.364;7.550;2024-01-11T08:31:45;51.90;;;30.20;;
54807;SDS011;40708;50.364;7.550;2024-01-11T08:34:11;48.50;;;29.47;;
54807;SDS011;40708;50.364;7.550;2024-01-11T08:36:36;52.37;;;30.83;;
54807;SDS011;40708;50.364;7.550;2024-01-11T08:39:03;51.63;;;30.13;;
54807;SDS011;40708;50.364;7.550;2024-01-11T08:41:30;53.13;;;30.90;;
54807;SDS011;40708;50.364;7.550;2024-01-11T08:43:55;51.93;;;30.77;;
54807;SDS011;40708;50.364;7.550;2024-01-11T08:46:26;53.92;;;32.50;;
54807;SDS011;40708;50.364;7.550;2024-01-11T08:48:52;51.23;;;31.23;;
54807;SDS011;40708;50.364;7.550;2024-01-11T08:51:17;49.87;;;29.37;;
54807;SDS011;40708;50.364;7.550;2024-01-11T08:53:42;49.03;;;29.70;;
54807;SDS011;40708;50.364;7.550;2024-01-11T08:56:08;50.63;;;28.58;;
54807;SDS011;40708;50.364;7.550;2024-01-11T08:58:33;51.20;;;29.50;;
54807;SDS011;40708;50.364;7.550;2024-01-11T09:00:58;50.23;;;29.43;;
54807;SDS011;40708;50.364;7.550;2024-01-11T09:03:23;43.67;;;26.83;;
54807;SDS011;40708;50.364;7.550;2024-01-11T09:05:49;48.53;;;27.83;;
54807;SDS011;40708;50.364;7.550;2024-01-11T09:08:14;43.07;;;27.10;;
54807;SDS011;40708;50.364;7.550;2024-01-11T09:10:39;44.53;;;28.30;;
54807;SDS011;40708;50.364;7.550;2024-01-11T09:13:06;50.77;;;30.93;;
54807;SDS011;40708;50.364;7.550;2024-01-11T09:15:31;41.47;;;28.13;;
54807;SDS011;40708;50.364;7.550;2024-01-11T09:17:56;45.10;;;29.00;;
54807;SDS011;40708;50.364;7.550;2024-01-11T09:20:22;49.60;;;29.17;;
54807;SDS011;40708;50.364;7.550;2024-01-11T09:22:47;45.17;;;26.70;;
54807;SDS011;40708;50.364;7.550;2024-01-11T09:25:12;46.90;;;28.27;;
54807;SDS011;40708;50.364;7.550;2024-01-11T09:27:37;60.73;;;28.90;;
54807;SDS011;40708;50.364;7.550;2024-01-11T09:30:02;44.60;;;29.17;;
54807;SDS011;40708;50.364;7.550;2024-01-11T09:32:29;52.47;;;28.60;;
54807;SDS011;40708;50.364;7.550;2024-01-11T09:34:56;47.23;;;27.90;;
54807;SDS011;40708;50.364;7.550;2024-01-11T09:37:21;40.03;;;26.63;;
54807;SDS011;40708;50.364;7.550;2024-01-11T09:39:46;42.80;;;27.23;;
54807;SDS011;40708;50.364;7.550;2024-01-11T09:42:11;45.17;;;28.13;;
54807;SDS011;40708;50.364;7.550;2024-01-11T09:44:38;43.97;;;27.63;;
54807;SDS011;40708;50.364;7.550;2024-01-11T09:47:06;41.97;;;26.30;;
54807;SDS011;40708;50.364;7.550;2024-01-11T09:49:33;42.50;;;26.33;;
54807;SDS011;40708;50.364;7.550;2024-01-11T09:51:58;38.70;;;25.70;;
54807;SDS011;40708;50.364;7.550;2024-01-11T09:54:24;39.60;;;26.97;;
54807;SDS011;40708;50.364;7.550;2024-01-11T09:56:50;42.67;;;26.47;;
54807;SDS011;40708;50.364;7.550;2024-01-11T09:59:18;37.27;;;26.00;;
54807;SDS011;40708;50.364;7.550;2024-01-11T10:01:43;41.63;;;27.43;;
54807;SDS011;40708;50.364;7.550;2024-01-11T10:04:08;39.13;;;27.43;;
54807;SDS011;40708;50.364;7.550;2024-01-11T10:06:34;40.63;;;27.17;;
54807;SDS011;40708;50.364;7.550;2024-01-11T10:09:03;40.40;;;28.10;;
54807;SDS011;40708;50.364;7.550;2024-01-11T10:11:28;42.60;;;28.00;;
54807;SDS011;40708;50.364;7.550;2024-01-11T10:13:57;38.07;;;27.30;;
54807;SDS011;40708;50.364;7.550;2024-01-11T10:16:23;40.07;;;26.47;;
54807;SDS011;40708;50.364;7.550;2024-01-11T10:18:49;38.00;;;25.30;;
54807;SDS011;40708;50.364;7.550;2024-01-11T10:21:14;40.03;;;24.87;;
54807;SDS011;40708;50.364;7.550;2024-01-11T10:23:39;34.90;;;25.43;;
54807;SDS011;40708;50.364;7.550;2024-01-11T10:26:04;53.07;;;35.03;;
54807;SDS011;40708;50.364;7.550;2024-01-11T10:28:31;45.00;;;29.17;;
54807;SDS011;40708;50.364;7.550;2024-01-11T10:30:57;43.30;;;27.47;;
54807;SDS011;40708;50.364;7.550;2024-01-11T10:33:22;36.25;;;24.80;;
54807;SDS011;40708;50.364;7.550;2024-01-11T10:35:48;40.43;;;27.47;;
54807;SDS011;40708;50.364;7.550;2024-01-11T10:38:17;45.93;;;30.27;;
54807;SDS011;40708;50.364;7.550;2024-01-11T10:40:42;43.53;;;29.33;;
54807;SDS011;40708;50.364;7.550;2024-01-11T10:43:11;44.10;;;30.23;;
54807;SDS011;40708;50.364;7.550;2024-01-11T10:45:36;38.07;;;26.10;;
54807;SDS011;40708;50.364;7.550;2024-01-11T10:48:05;42.23;;;28.97;;
54807;SDS011;40708;50.364;7.550;2024-01-11T10:50:34;42.87;;;28.77;;
54807;SDS011;40708;50.364;7.550;2024-01-11T10:53:04;46.10;;;27.63;;
54807;SDS011;40708;50.364;7.550;2024-01-11T10:55:34;44.87;;;30.37;;
54807;SDS011;40708;50.364;7.550;2024-01-11T10:58:00;42.77;;;29.77;;
54807;SDS011;40708;50.364;7.550;2024-01-11T11:00:25;39.87;;;27.13;;
54807;SDS011;40708;50.364;7.550;2024-01-11T11:02:51;41.77;;;26.07;;
54807;SDS011;40708;50.364;7.550;2024-01-11T11:05:19;40.83;;;27.90;;
54807;SDS011;40708;50.364;7.550;2024-01-11T11:07:46;43.30;;;28.23;;
54807;SDS011;40708;50.364;7.550;2024-01-11T11:10:11;41.97;;;28.50;;
54807;SDS011;40708;50.364;7.550;2024-01-11T11:12:37;39.00;;;25.93;;
54807;SDS011;40708;50.364;7.550;2024-01-11T11:15:03;36.37;;;25.87;;
54807;SDS011;40708;50.364;7.550;2024-01-11T11:17:29;39.23;;;25.77;;
54807;SDS011;40708;50.364;7.550;2024-01-11T11:19:54;36.40;;;26.23;;
54807;SDS011;40708;50.364;7.550;2024-01-11T11:22:19;38.10;;;25.60;;
54807;SDS011;40708;50.364;7.550;2024-01-11T11:24:45;36.70;;;25.33;;
54807;SDS011;40708;50.364;7.550;2024-01-11T11:27:13;35.60;;;24.70;;
54807;SDS011;40708;50.364;7.550;2024-01-11T11:29:38;35.60;;;26.10;;
54807;SDS011;40708;50.364;7.550;2024-01-11T11:32:03;36.28;;;25.17;;
54807;SDS011;40708;50.364;7.550;2024-01-11T11:34:44;34.97;;;25.13;;
54807;SDS011;40708;50.364;7.550;2024-01-11T11:37:10;36.33;;;23.93;;
54807;SDS011;40708;50.364;7.550;2024-01-11T11:39:36;36.77;;;25.20;;
54807;SDS011;40708;50.364;7.550;2024-01-11T11:42:01;41.20;;;27.27;;
54807;SDS011;40708;50.364;7.550;2024-01-11T11:44:26;39.47;;;25.87;;
54807;SDS011;40708;50.364;7.550;2024-01-11T11:46:51;37.10;;;25.00;;
54807;SDS011;40708;50.364;7.550;2024-01-11T11:49:16;37.70;;;25.67;;
54807;SDS011;40708;50.364;7.550;2024-01-11T11:51:42;35.23;;;24.90;;
54807;SDS011;40708;50.364;7.550;2024-01-11T11:54:08;36.93;;;25.53;;
54807;SDS011;40708;50.364;7.550;2024-01-11T11:56:34;36.13;;;25.03;;
54807;SDS011;40708;50.364;7.550;2024-01-11T11:59:00;36.00;;;26.07;;
54807;SDS011;40708;50.364;7.550;2024-01-11T12:01:27;35.37;;;25.27;;
54807;SDS011;40708;50.364;7.550;2024-01-11T12:03:53;34.00;;;25.73;;
54807;SDS011;40708;50.364;7.550;2024-01-11T12:06:19;40.07;;;26.93;;
54807;SDS011;40708;50.364;7.550;2024-01-11T12:08:45;40.53;;;27.90;;
54807;SDS011;40708;50.364;7.550;2024-01-11T12:11:28;35.93;;;25.40;;
54807;SDS011;40708;50.364;7.550;2024-01-11T12:13:54;37.67;;;26.20;;
54807;SDS011;40708;50.364;7.550;2024-01-11T12:16:21;34.87;;;25.37;;
54807;SDS011;40708;50.364;7.550;2024-01-11T12:18:46;34.33;;;24.67;;
54807;SDS011;40708;50.364;7.550;2024-01-11T12:21:11;41.40;;;27.30;;
54807;SDS011;40708;50.364;7.550;2024-01-11T12:23:37;34.67;;;26.00;;
54807;SDS011;40708;50.364;7.550;2024-01-11T12:26:03;34.57;;;25.00;;
54807;SDS011;40708;50.364;7.550;2024-01-11T12:28:32;41.70;;;27.57;;
54807;SDS011;40708;50.364;7.550;2024-01-11T12:30:58;36.23;;;27.40;;
54807;SDS011;40708;50.364;7.550;2024-01-11T12:33:23;40.90;;;27.43;;
54807;SDS011;40708;50.364;7.550;2024-01-11T12:35:49;37.27;;;26.13;;
54807;SDS011;40708;50.364;7.550;2024-01-11T12:38:15;37.93;;;25.67;;
54807;SDS011;40708;50.364;7.550;2024-01-11T12:40:40;39.07;;;26.60;;
54807;SDS011;40708;50.364;7.550;2024-01-11T12:43:06;40.05;;;27.63;;
54807;SDS011;40708;50.364;7.550;2024-01-11T12:45:32;38.70;;;26.57;;
54807;SDS011;40708;50.364;7.550;2024-01-11T12:48:01;38.93;;;24.87;;
54807;SDS011;40708;50.364;7.550;2024-01-11T12:50:27;35.10;;;25.87;;
54807;SDS011;40708;50.364;7.550;2024-01-11T12:53:08;35.27;;;24.80;;
54807;SDS011;40708;50.364;7.550;2024-01-11T12:55:33;36.60;;;25.63;;
54807;SDS011;40708;50.364;7.550;2024-01-11T12:58:05;37.40;;;24.50;;
54807;SDS011;40708;50.364;7.550;2024-01-11T13:00:30;35.20;;;25.50;;
54807;SDS011;40708;50.364;7.550;2024-01-11T13:02:56;31.53;;;22.73;;
54807;SDS011;40708;50.364;7.550;2024-01-11T13:05:21;34.10;;;23.70;;
54807;SDS011;40708;50.364;7.550;2024-01-11T13:07:46;34.93;;;25.87;;
54807;SDS011;40708;50.364;7.550;2024-01-11T13:10:11;35.10;;;23.47;;
54807;SDS011;40708;50.364;7.550;2024-01-11T13:12:37;34.23;;;22.53;;
54807;SDS011;40708;50.364;7.550;2024-01-11T13:15:02;34.07;;;25.27;;
54807;SDS011;40708;50.364;7.550;2024-01-11T13:17:27;35.73;;;24.43;;
54807;SDS011;40708;50.364;7.550;2024-01-11T13:19:52;34.70;;;24.10;;
54807;SDS011;40708;50.364;7.550;2024-01-11T13:22:17;32.25;;;24.45;;
54807;SDS011;40708;50.364;7.550;2024-01-11T13:24:43;32.78;;;22.95;;
54807;SDS011;40708;50.364;7.550;2024-01-11T13:27:08;35.07;;;23.13;;
54807;SDS011;40708;50.364;7.550;2024-01-11T13:29:33;34.75;;;23.05;;
54807;SDS011;40708;50.364;7.550;2024-01-11T13:31:58;31.48;;;22.48;;
54807;SDS011;40708;50.364;7.550;2024-01-11T13:34:23;30.07;;;22.57;;
54807;SDS011;40708;50.364;7.550;2024-01-11T13:36:48;36.20;;;25.17;;
54807;SDS011;40708;50.364;7.550;2024-01-11T13:39:14;32.60;;;22.40;;
54807;SDS011;40708;50.364;7.550;2024-01-11T13:41:39;31.47;;;22.13;;
54807;SDS011;40708;50.364;7.550;2024-01-11T13:44:05;31.00;;;22.50;;
54807;SDS011;40708;50.364;7.550;2024-01-11T13:46:31;30.27;;;22.07;;
54807;SDS011;40708;50.364;7.550;2024-01-11T13:48:56;27.67;;;21.33;;
54807;SDS011;40708;50.364;7.550;2024-01-11T13:51:21;34.67;;;22.80;;
54807;SDS011;40708;50.364;7.550;2024-01-11T13:53:46;31.63;;;21.83;;
54807;SDS011;40708;50.364;7.550;2024-01-11T13:56:11;35.05;;;22.38;;
54807;SDS011;40708;50.364;7.550;2024-01-11T13:58:37;32.67;;;21.67;;
54807;SDS011;40708;50.364;7.550;2024-01-11T14:01:02;32.40;;;22.53;;
54807;SDS011;40708;50.364;7.550;2024-01-11T14:03:27;31.00;;;21.10;;
54807;SDS011;40708;50.364;7.550;2024-01-11T14:05:53;28.70;;;21.43;;
54807;SDS011;40708;50.364;7.550;2024-01-11T14:08:18;30.70;;;23.90;;
54807;SDS011;40708;50.364;7.550;2024-01-11T14:10:43;33.03;;;22.83;;